Time;durP1;ratioP1;P1;durP2;ratioP2;P2;SDS_P1;SDS_P2;PMS_P1;PMS_P2;Temp;Humidity;BMP_temperature;BMP_pressure;BME280_temperature;BME280_humidity;BME280_pressure;Samples;Min_cycle;Max_cycle;Signal;HPM_P1;HPM_P2
2023/08/14 00:01:51;;;;;;;2.05;1.13;;;14.80;99.90;;;;;;5062888;28;20544;-84
2023/08/14 00:04:16;;;;;;;4.63;1.65;;;14.80;99.90;;;;;;5062535;28;20104;-83
2023/08/14 00:06:42;;;;;;;4.75;1.58;;;14.80;99.90;;;;;;5084924;28;20040;-84
2023/08/14 00:09:08;;;;;;;3.55;1.90;;;14.80;99.90;;;;;;5088594;28;20114;-84
2023/08/14 00:11:34;;;;;;;4.05;1.75;;;14.80;99.90;;;;;;5067055;28;20624;-84
2023/08/14 00:13:59;;;;;;;4.25;1.40;;;14.70;99.90;;;;;;5065991;28;20415;-83
2023/08/14 00:16:25;;;;;;;2.75;1.25;;;14.70;99.90;;;;;;5084485;28;20044;-84
2023/08/14 00:18:53;;;;;;;3.50;1.50;;;14.70;99.90;;;;;;5068124;28;20284;-84
2023/08/14 00:21:19;;;;;;;2.20;1.00;;;14.70;99.90;;;;;;5086456;28;20044;-84
2023/08/14 00:23:44;;;;;;;2.50;1.42;;;14.70;99.90;;;;;;5087559;28;20380;-84
2023/08/14 00:26:14;;;;;;;2.45;1.00;;;14.70;99.90;;;;;;5085187;28;20044;-83
2023/08/14 00:28:40;;;;;;;3.53;1.67;;;14.60;99.90;;;;;;5086162;28;20067;-84
2023/08/14 00:31:06;;;;;;;2.75;1.48;;;14.60;99.90;;;;;;5084917;28;20056;-83
2023/08/14 00:33:32;;;;;;;0.80;0.60;;;14.60;99.90;;;;;;5074076;28;20513;-84
2023/08/14 00:35:58;;;;;;;1.05;0.60;;;14.50;99.90;;;;;;5071395;28;20584;-83
2023/08/14 00:38:24;;;;;;;5.03;0.50;;;14.50;99.90;;;;;;5069472;28;20136;-84
2023/08/14 00:40:52;;;;;;;6.88;0.90;;;14.50;99.90;;;;;;5084664;28;20138;-84
2023/08/14 00:43:21;;;;;;;0.85;0.40;;;14.50;99.90;;;;;;5069681;28;20044;-83
2023/08/14 00:45:48;;;;;;;1.15;0.50;;;14.50;99.90;;;;;;5055617;28;20048;-82
2023/08/14 00:48:14;;;;;;;0.60;0.30;;;14.40;99.90;;;;;;5068599;28;20083;-84
2023/08/14 00:50:42;;;;;;;0.68;0.38;;;14.40;99.90;;;;;;5085494;28;20724;-84
2023/08/14 00:53:08;;;;;;;0.40;0.20;;;14.30;99.90;;;;;;5087329;28;20048;-84
2023/08/14 00:55:34;;;;;;;0.52;0.30;;;14.20;99.90;;;;;;5061158;28;20065;-84
2023/08/14 00:58:00;;;;;;;0.30;0.20;;;14.20;99.90;;;;;;5065889;28;20055;-84
2023/08/14 01:00:28;;;;;;;0.95;0.40;;;14.20;99.90;;;;;;5069678;28;20038;-84
2023/08/14 01:02:54;;;;;;;0.75;0.35;;;14.20;99.90;;;;;;5053892;28;20465;-84
2023/08/14 01:05:20;;;;;;;1.45;0.65;;;14.20;99.90;;;;;;5086063;28;20071;-84
2023/08/14 01:07:45;;;;;;;11.45;1.00;;;14.20;99.90;;;;;;5084575;28;20616;-84
2023/08/14 01:10:12;;;;;;;2.00;1.00;;;14.20;99.90;;;;;;5061463;28;20036;-84
2023/08/14 01:12:54;;;;;;;3.83;1.17;;;14.20;99.90;;;;;;5080181;28;20135;-84
2023/08/14 01:15:46;;;;;;;1.70;1.35;;;14.20;99.90;;;;;;5048937;28;20499;-84
2023/08/14 01:18:15;;;;;;;3.92;1.70;;;14.20;99.90;;;;;;5082927;28;20040;-84
2023/08/14 01:20:44;;;;;;;3.95;1.40;;;14.20;99.90;;;;;;5065601;28;20136;-84
2023/08/14 01:23:17;;;;;;;2.55;1.52;;;14.20;99.90;;;;;;5069233;28;20032;-84
2023/08/14 01:25:43;;;;;;;4.13;1.80;;;14.20;99.90;;;;;;5083250;28;20068;-84
2023/08/14 01:28:10;;;;;;;1.67;1.00;;;14.20;99.90;;;;;;5089759;28;20066;-84
2023/08/14 01:30:36;;;;;;;4.15;1.00;;;14.10;99.90;;;;;;5059469;28;20056;-84
2023/08/14 01:33:02;;;;;;;2.38;1.00;;;14.10;99.90;;;;;;5063333;28;20151;-84
2023/08/14 01:35:37;;;;;;;3.00;0.77;;;14.10;99.90;;;;;;5085643;28;20044;-84
2023/08/14 01:38:23;;;;;;;1.10;0.45;;;14.00;99.90;;;;;;5090594;28;20044;-84
2023/08/14 01:41:12;;;;;;;1.90;0.63;;;14.00;99.90;;;;;;5070612;28;20048;-84
2023/08/14 01:43:47;;;;;;;1.70;0.57;;;14.00;99.90;;;;;;5071894;28;20044;-84
2023/08/14 01:46:15;;;;;;;2.92;0.90;;;13.90;99.90;;;;;;5071652;28;20071;-85
2023/08/14 01:48:41;;;;;;;5.88;0.70;;;13.90;99.90;;;;;;5072089;28;20131;-85
2023/08/14 01:51:09;;;;;;;1.85;0.93;;;13.90;99.90;;;;;;5071214;28;20126;-84
2023/08/14 01:53:36;;;;;;;2.42;1.20;;;13.90;99.90;;;;;;5086258;28;20123;-84
2023/08/14 01:56:02;;;;;;;3.40;0.70;;;13.90;99.90;;;;;;5063186;28;20059;-85
2023/08/14 01:58:28;;;;;;;2.30;1.35;;;13.90;99.90;;;;;;5088155;28;20089;-85
2023/08/14 02:00:53;;;;;;;0.88;0.63;;;13.90;99.90;;;;;;5089513;28;20072;-84
2023/08/14 02:03:19;;;;;;;2.15;1.20;;;13.90;99.90;;;;;;5076340;28;20043;-84
2023/08/14 02:05:45;;;;;;;2.15;0.90;;;13.90;99.90;;;;;;5060441;28;20040;-84
2023/08/14 02:08:10;;;;;;;1.25;0.43;;;13.90;99.90;;;;;;5070120;28;20126;-85
2023/08/14 02:10:36;;;;;;;2.03;0.40;;;13.80;99.90;;;;;;5089093;28;20093;-84
2023/08/14 02:13:02;;;;;;;1.83;0.52;;;13.80;99.90;;;;;;5088012;28;20056;-84
2023/08/14 02:15:28;;;;;;;0.80;0.40;;;13.80;99.90;;;;;;5088967;28;20136;-85
2023/08/14 02:17:53;;;;;;;1.60;0.73;;;13.80;99.90;;;;;;5089239;28;20093;-84
2023/08/14 02:20:19;;;;;;;0.73;0.40;;;13.80;99.90;;;;;;5088820;28;20510;-84
2023/08/14 02:22:46;;;;;;;2.38;1.70;;;13.80;99.90;;;;;;5088234;28;20048;-84
2023/08/14 02:25:11;;;;;;;4.15;2.15;;;13.70;99.90;;;;;;5071903;28;20079;-84
2023/08/14 02:27:37;;;;;;;3.42;1.85;;;13.70;99.90;;;;;;5088062;28;20087;-84
2023/08/14 02:30:03;;;;;;;4.10;1.70;;;13.70;99.90;;;;;;5072290;28;20056;-84
2023/08/14 02:32:29;;;;;;;3.15;2.15;;;13.70;99.90;;;;;;5084749;28;20058;-84
2023/08/14 02:34:56;;;;;;;4.30;1.88;;;13.70;99.90;;;;;;5061804;28;20044;-84
2023/08/14 02:37:22;;;;;;;10.20;3.60;;;13.70;99.90;;;;;;5078571;28;20072;-85
2023/08/14 02:39:48;;;;;;;6.63;4.13;;;13.70;99.90;;;;;;5059958;28;20098;-84
2023/08/14 02:42:19;;;;;;;8.30;3.88;;;13.80;99.90;;;;;;5089561;28;20086;-84
2023/08/14 02:44:45;;;;;;;9.90;4.88;;;13.90;99.90;;;;;;5070971;28;20446;-84
2023/08/14 02:47:11;;;;;;;17.55;6.45;;;13.90;99.90;;;;;;5069868;28;20040;-84
2023/08/14 02:49:40;;;;;;;7.35;4.45;;;14.00;99.90;;;;;;5068274;28;20042;-84
2023/08/14 02:52:06;;;;;;;9.63;5.88;;;14.00;99.90;;;;;;5089611;28;20044;-85
2023/08/14 02:54:31;;;;;;;9.40;5.93;;;14.00;99.90;;;;;;5070622;28;20048;-83
2023/08/14 02:56:57;;;;;;;10.13;5.70;;;14.10;99.90;;;;;;5086856;28;20297;-84
2023/08/14 02:59:23;;;;;;;11.27;5.07;;;14.10;99.90;;;;;;5088309;28;20036;-84
2023/08/14 03:01:48;;;;;;;9.38;5.32;;;14.10;99.90;;;;;;5079084;28;20471;-84
2023/08/14 03:04:16;;;;;;;8.25;4.70;;;14.10;99.90;;;;;;5088239;28;20036;-84
2023/08/14 03:06:41;;;;;;;10.32;6.55;;;14.10;99.90;;;;;;5065238;28;20116;-84
2023/08/14 03:09:07;;;;;;;8.63;5.05;;;14.10;99.90;;;;;;5079109;28;20044;-85
2023/08/14 03:11:33;;;;;;;9.18;5.85;;;14.00;99.90;;;;;;5082783;28;20044;-84
2023/08/14 03:13:58;;;;;;;8.82;5.45;;;14.10;99.90;;;;;;5062477;28;20310;-85
2023/08/14 03:16:24;;;;;;;9.90;5.53;;;14.10;99.90;;;;;;5081215;28;20048;-84
2023/08/14 03:18:50;;;;;;;10.25;6.20;;;14.10;99.90;;;;;;5079147;28;20065;-84
2023/08/14 03:21:16;;;;;;;10.15;6.22;;;14.20;99.90;;;;;;5087231;28;20040;-84
2023/08/14 03:23:41;;;;;;;11.05;6.43;;;14.20;99.90;;;;;;5087951;28;20032;-84
2023/08/14 03:26:08;;;;;;;12.60;7.95;;;14.20;99.90;;;;;;5086836;28;20282;-84
2023/08/14 03:28:34;;;;;;;12.48;6.88;;;14.20;99.90;;;;;;5075224;28;20036;-84
2023/08/14 03:31:00;;;;;;;9.40;6.40;;;14.20;99.90;;;;;;5067928;28;20063;-84
2023/08/14 03:33:26;;;;;;;12.75;6.90;;;14.20;99.90;;;;;;5087394;28;20055;-84
2023/08/14 03:35:54;;;;;;;11.45;6.07;;;14.20;99.90;;;;;;5068669;28;20213;-84
2023/08/14 03:38:21;;;;;;;11.35;5.88;;;14.20;99.90;;;;;;5087406;28;20052;-85
2023/08/14 03:40:46;;;;;;;11.20;7.35;;;14.20;99.90;;;;;;5080907;28;20186;-84
2023/08/14 03:43:12;;;;;;;10.93;6.55;;;14.10;99.90;;;;;;5062323;28;20134;-84
2023/08/14 03:45:38;;;;;;;8.40;5.90;;;14.20;99.90;;;;;;5064223;28;20530;-84
2023/08/14 03:48:04;;;;;;;13.20;7.05;;;14.10;99.90;;;;;;5078590;28;20051;-84
2023/08/14 03:50:30;;;;;;;14.63;7.65;;;14.10;99.90;;;;;;5069153;28;20035;-84
2023/08/14 03:52:56;;;;;;;10.95;7.80;;;14.10;99.90;;;;;;5069619;28;20070;-85
2023/08/14 03:55:22;;;;;;;12.88;8.07;;;14.10;99.90;;;;;;5087282;28;20051;-85
2023/08/14 03:57:47;;;;;;;14.23;8.18;;;14.10;99.90;;;;;;5086961;28;20050;-84
2023/08/14 04:00:13;;;;;;;19.23;10.02;;;14.10;99.90;;;;;;5087781;28;20032;-84
2023/08/14 04:02:39;;;;;;;17.85;11.57;;;14.10;99.90;;;;;;5069192;28;20046;-84
2023/08/14 04:05:06;;;;;;;19.27;10.38;;;14.10;99.90;;;;;;5086777;28;20048;-85
2023/08/14 04:07:31;;;;;;;16.08;9.32;;;14.10;99.90;;;;;;5088095;28;20052;-85
2023/08/14 04:09:57;;;;;;;18.80;11.35;;;14.20;99.90;;;;;;5086985;28;20291;-85
2023/08/14 04:12:23;;;;;;;20.10;10.63;;;14.10;99.90;;;;;;5087693;28;20074;-85
2023/08/14 04:14:50;;;;;;;19.30;11.80;;;14.10;99.90;;;;;;5069357;28;20051;-85
2023/08/14 04:17:16;;;;;;;17.73;11.88;;;14.20;99.90;;;;;;5069305;28;20048;-84
2023/08/14 04:19:41;;;;;;;18.55;11.30;;;14.20;99.90;;;;;;5050946;28;20040;-84
2023/08/14 04:22:07;;;;;;;16.23;10.13;;;14.20;99.90;;;;;;5064425;28;20085;-84
2023/08/14 04:24:33;;;;;;;24.38;12.75;;;14.20;99.90;;;;;;5070090;28;20459;-84
2023/08/14 04:26:59;;;;;;;19.17;12.52;;;14.20;99.90;;;;;;5067993;28;20407;-84
2023/08/14 04:29:25;;;;;;;17.45;12.20;;;14.20;99.90;;;;;;5069614;28;20287;-85
2023/08/14 04:31:50;;;;;;;16.58;12.02;;;14.30;99.90;;;;;;5060549;28;20042;-83
2023/08/14 04:34:16;;;;;;;18.00;11.60;;;14.30;99.90;;;;;;5073624;28;20384;-84
2023/08/14 04:36:42;;;;;;;19.88;12.20;;;14.30;99.90;;;;;;5059741;28;20071;-84
2023/08/14 04:39:07;;;;;;;17.48;12.13;;;14.40;99.90;;;;;;5084590;28;20052;-85
2023/08/14 04:41:33;;;;;;;18.00;11.15;;;14.40;99.90;;;;;;5068194;28;20115;-84
2023/08/14 04:43:59;;;;;;;21.15;12.40;;;14.40;99.90;;;;;;5067042;28;20036;-85
2023/08/14 04:46:38;;;;;;;18.63;12.93;;;14.50;99.90;;;;;;5065779;28;20127;-85
2023/08/14 04:49:04;;;;;;;18.70;12.00;;;14.50;99.90;;;;;;5067196;28;20070;-85
2023/08/14 04:51:31;;;;;;;16.33;11.10;;;14.50;99.90;;;;;;5067272;28;20036;-84
2023/08/14 04:53:59;;;;;;;14.55;10.23;;;14.50;99.90;;;;;;5066108;28;20051;-84
2023/08/14 04:56:25;;;;;;;18.15;12.13;;;14.60;99.90;;;;;;5084672;28;20082;-85
2023/08/14 04:58:52;;;;;;;15.13;10.68;;;14.60;99.90;;;;;;5085185;28;20089;-84
2023/08/14 05:01:18;;;;;;;15.95;10.43;;;14.60;99.90;;;;;;5083711;28;20054;-84
2023/08/14 05:03:44;;;;;;;19.17;11.38;;;14.70;99.90;;;;;;5056784;28;20053;-84
2023/08/14 05:06:10;;;;;;;22.10;12.82;;;14.80;99.90;;;;;;5085177;28;20037;-84
2023/08/14 05:08:35;;;;;;;16.65;11.57;;;14.80;99.90;;;;;;5068467;28;20047;-84
2023/08/14 05:11:01;;;;;;;20.95;11.02;;;15.00;99.90;;;;;;5086073;28;20055;-84
2023/08/14 05:13:27;;;;;;;20.08;11.38;;;15.00;99.90;;;;;;5069275;28;20405;-84
2023/08/14 05:15:53;;;;;;;18.15;10.63;;;15.10;99.90;;;;;;5084753;28;20076;-85
2023/08/14 05:18:19;;;;;;;17.20;10.30;;;15.10;99.90;;;;;;5087273;28;20043;-85
2023/08/14 05:20:45;;;;;;;15.80;10.07;;;15.20;99.90;;;;;;5055466;28;20470;-85
2023/08/14 05:23:12;;;;;;;18.42;9.80;;;15.30;99.90;;;;;;5084785;28;20081;-83
2023/08/14 05:25:38;;;;;;;16.55;9.18;;;15.30;99.90;;;;;;5068105;28;20051;-85
2023/08/14 05:28:05;;;;;;;12.82;9.45;;;15.30;99.90;;;;;;5084961;28;20035;-84
2023/08/14 05:30:31;;;;;;;17.70;9.32;;;15.40;99.90;;;;;;5086688;28;20106;-84
2023/08/14 05:32:57;;;;;;;17.63;9.40;;;15.40;99.90;;;;;;5067644;28;20044;-84
2023/08/14 05:35:23;;;;;;;16.02;8.95;;;15.50;99.90;;;;;;5067828;28;20104;-85
2023/08/14 05:37:55;;;;;;;15.07;9.05;;;15.50;99.90;;;;;;5084721;28;20040;-84
2023/08/14 05:40:27;;;;;;;14.50;9.27;;;15.60;99.90;;;;;;5086428;28;20043;-83
2023/08/14 05:43:11;;;;;;;15.90;8.57;;;15.70;99.90;;;;;;5085669;28;20048;-84
2023/08/14 05:45:41;;;;;;;14.40;9.02;;;15.70;99.90;;;;;;5086827;28;20094;-85
2023/08/14 05:48:07;;;;;;;16.55;9.07;;;15.90;99.90;;;;;;5085063;28;20047;-85
2023/08/14 05:50:33;;;;;;;15.98;8.88;;;15.90;99.90;;;;;;5084552;28;20044;-85
2023/08/14 05:53:06;;;;;;;14.30;7.97;;;16.00;99.90;;;;;;5067839;28;20047;-84
2023/08/14 05:55:37;;;;;;;19.80;7.82;;;16.10;99.90;;;;;;5067114;28;20052;-84
2023/08/14 05:58:04;;;;;;;12.65;7.30;;;16.20;99.90;;;;;;5084085;28;20040;-85
2023/08/14 06:00:30;;;;;;;16.45;8.07;;;16.20;99.90;;;;;;5063156;28;20433;-85
2023/08/14 06:03:00;;;;;;;12.52;7.10;;;16.30;99.90;;;;;;5071986;28;20495;-85
2023/08/14 06:05:26;;;;;;;17.17;7.30;;;16.40;99.90;;;;;;5068088;28;20082;-85
2023/08/14 06:07:54;;;;;;;11.80;6.40;;;16.50;99.90;;;;;;5068109;28;20047;-84
2023/08/14 06:10:20;;;;;;;15.68;7.10;;;16.50;99.90;;;;;;5069105;28;20553;-84
2023/08/14 06:12:48;;;;;;;16.25;6.13;;;16.60;99.90;;;;;;5070571;28;20089;-85
2023/08/14 06:15:15;;;;;;;11.77;6.07;;;16.60;99.90;;;;;;5072288;28;20036;-85
2023/08/14 06:17:42;;;;;;;12.25;5.50;;;16.70;99.90;;;;;;5086417;28;20032;-85
2023/08/14 06:20:10;;;;;;;10.75;5.22;;;16.80;99.90;;;;;;5066424;28;20036;-85
2023/08/14 06:22:46;;;;;;;16.05;5.90;;;16.80;99.90;;;;;;5084032;28;20432;-86
2023/08/14 06:25:13;;;;;;;12.25;5.65;;;16.90;99.90;;;;;;5068412;28;20079;-85
2023/08/14 06:27:40;;;;;;;9.30;4.45;;;17.00;99.90;;;;;;5088837;28;20083;-87
2023/08/14 06:30:10;;;;;;;9.40;4.50;;;17.10;99.90;;;;;;5087159;28;20048;-85
2023/08/14 06:32:38;;;;;;;15.00;4.70;;;17.20;99.90;;;;;;5071051;28;20048;-85
2023/08/14 06:35:04;;;;;;;12.07;4.72;;;17.30;99.90;;;;;;5056361;28;20139;-86
2023/08/14 06:37:30;;;;;;;11.27;4.63;;;17.40;99.90;;;;;;5061175;28;20040;-85
2023/08/14 06:39:56;;;;;;;12.15;4.78;;;17.50;99.90;;;;;;5062020;28;20039;-86
2023/08/14 06:42:21;;;;;;;9.32;4.40;;;17.60;99.90;;;;;;5088075;28;20455;-85
2023/08/14 06:44:47;;;;;;;12.73;5.00;;;17.70;99.90;;;;;;5085996;28;20036;-86
2023/08/14 06:47:13;;;;;;;11.35;4.10;;;17.70;99.90;;;;;;5063450;28;20040;-86
2023/08/14 06:49:39;;;;;;;9.27;3.97;;;17.70;99.90;;;;;;5076877;28;20040;-86
2023/08/14 06:52:05;;;;;;;9.82;4.35;;;17.70;99.90;;;;;;5083987;28;20059;-86
2023/08/14 06:54:31;;;;;;;13.23;4.50;;;17.80;99.90;;;;;;5069169;28;20048;-88
2023/08/14 06:56:57;;;;;;;8.93;4.07;;;17.80;99.90;;;;;;5068411;28;20090;-86
2023/08/14 06:59:22;;;;;;;10.48;4.38;;;17.90;99.90;;;;;;5068821;28;20036;-83
2023/08/14 07:01:48;;;;;;;11.00;4.65;;;17.90;99.90;;;;;;5082295;28;20037;-86
2023/08/14 07:04:14;;;;;;;11.10;4.63;;;17.90;99.90;;;;;;5063474;28;20028;-84
2023/08/14 07:06:40;;;;;;;11.65;4.10;;;17.90;99.90;;;;;;5069155;28;20055;-84
2023/08/14 07:09:05;;;;;;;9.63;4.55;;;18.00;99.90;;;;;;5071220;28;20071;-86
2023/08/14 07:11:36;;;;;;;14.27;5.10;;;18.00;99.90;;;;;;5067171;28;20044;-86
2023/08/14 07:14:02;;;;;;;11.32;4.95;;;18.00;99.90;;;;;;5079510;28;20525;-86
2023/08/14 07:16:28;;;;;;;9.63;5.07;;;18.10;99.90;;;;;;5064634;28;20136;-85
2023/08/14 07:18:54;;;;;;;12.70;5.07;;;18.10;99.90;;;;;;5078668;28;20127;-86
2023/08/14 07:21:20;;;;;;;11.00;4.70;;;18.20;99.90;;;;;;5069674;28;20051;-87
2023/08/14 07:23:46;;;;;;;11.68;5.32;;;18.30;99.90;;;;;;5088193;28;20040;-89
2023/08/14 07:26:11;;;;;;;16.05;5.70;;;18.40;99.90;;;;;;5088533;28;20040;-89
2023/08/14 07:28:40;;;;;;;10.02;4.50;;;18.50;99.90;;;;;;5088563;28;20050;-89
2023/08/14 07:31:07;;;;;;;10.75;4.75;;;18.70;99.90;;;;;;5071321;28;20047;-89
2023/08/14 07:33:33;;;;;;;13.15;4.85;;;18.80;99.90;;;;;;5072232;28;20399;-89
2023/08/14 07:36:00;;;;;;;8.40;4.18;;;18.90;99.90;;;;;;5058112;28;20535;-89
2023/08/14 07:38:26;;;;;;;9.38;3.80;;;19.00;99.90;;;;;;5076777;28;20044;-89
2023/08/14 07:40:53;;;;;;;6.25;3.20;;;19.10;99.90;;;;;;5087671;28;20032;-89
2023/08/14 07:43:19;;;;;;;9.32;4.32;;;19.30;99.90;;;;;;5088728;28;20040;-89
2023/08/14 07:45:45;;;;;;;8.65;3.83;;;19.30;99.90;;;;;;5072042;28;20070;-90
2023/08/14 07:48:10;;;;;;;10.43;4.05;;;19.40;99.90;;;;;;5071647;28;20155;-91
2023/08/14 07:50:36;;;;;;;9.07;4.00;;;19.50;99.90;;;;;;5057776;28;20048;-84
2023/08/14 07:53:02;;;;;;;9.90;3.85;;;19.60;99.90;;;;;;5088932;28;20115;-89
2023/08/14 07:55:28;;;;;;;6.45;3.08;;;19.70;99.90;;;;;;5089194;28;20043;-90
2023/08/14 07:57:54;;;;;;;7.93;3.20;;;19.80;99.90;;;;;;5074918;28;20089;-90
2023/08/14 08:00:20;;;;;;;9.32;3.30;;;19.90;99.90;;;;;;5071023;28;20040;-90
2023/08/14 08:02:45;;;;;;;10.38;3.03;;;19.90;99.90;;;;;;5087481;28;20093;-90
2023/08/14 08:05:11;;;;;;;10.65;3.30;;;20.00;99.90;;;;;;5088232;28;20036;-83
2023/08/14 08:07:37;;;;;;;9.70;3.10;;;20.00;99.90;;;;;;5069295;28;20075;-84
2023/08/14 08:10:03;;;;;;;9.18;2.90;;;20.10;99.90;;;;;;5086404;28;20067;-85
2023/08/14 08:12:29;;;;;;;10.70;2.80;;;20.10;99.90;;;;;;5086796;28;20051;-84
2023/08/14 08:14:55;;;;;;;8.55;2.63;;;20.10;99.90;;;;;;5069537;28;20077;-84
2023/08/14 08:17:21;;;;;;;9.68;3.17;;;20.10;99.90;;;;;;5085641;28;20046;-84
2023/08/14 08:19:46;;;;;;;13.48;3.45;;;20.20;99.90;;;;;;5068945;28;20048;-84
2023/08/14 08:22:13;;;;;;;15.45;6.93;;;20.20;99.90;;;;;;5087075;28;20164;-84
2023/08/14 08:24:39;;;;;;;13.57;4.68;;;20.30;99.90;;;;;;5085352;28;20044;-84
2023/08/14 08:27:05;;;;;;;9.48;5.15;;;20.40;99.90;;;;;;5070064;28;20101;-84
2023/08/14 08:29:30;;;;;;;10.15;3.63;;;20.50;99.90;;;;;;5069794;28;20577;-84
2023/08/14 08:31:56;;;;;;;9.30;3.10;;;20.70;99.90;;;;;;5085954;28;20127;-84
2023/08/14 08:34:22;;;;;;;8.55;2.50;;;20.70;99.90;;;;;;5086218;28;20044;-84
2023/08/14 08:36:47;;;;;;;11.30;3.22;;;20.80;99.90;;;;;;5086724;28;20479;-85
2023/08/14 08:39:13;;;;;;;8.60;3.15;;;21.00;99.90;;;;;;5085720;28;20036;-84
2023/08/14 08:41:44;;;;;;;9.38;2.88;;;21.10;99.90;;;;;;5087168;28;20040;-84
2023/08/14 08:44:23;;;;;;;6.78;2.45;;;21.30;99.90;;;;;;5086900;28;20028;-85
2023/08/14 08:46:52;;;;;;;11.00;2.67;;;21.50;99.90;;;;;;5067393;28;20051;-85
2023/08/14 08:49:18;;;;;;;6.68;1.90;;;21.50;99.90;;;;;;5069754;28;20051;-84
2023/08/14 08:51:45;;;;;;;8.43;2.80;;;21.60;99.90;;;;;;5068210;28;20048;-85
2023/08/14 08:54:14;;;;;;;9.35;2.42;;;21.70;99.90;;;;;;5087029;28;20048;-85
2023/08/14 08:56:41;;;;;;;12.05;2.42;;;21.80;99.90;;;;;;5084766;28;20067;-84
2023/08/14 08:59:09;;;;;;;7.57;2.13;;;22.00;99.90;;;;;;5087099;28;20120;-84
2023/08/14 09:01:35;;;;;;;13.15;2.38;;;22.20;99.90;;;;;;5081251;28;20146;-83
2023/08/14 09:04:03;;;;;;;8.30;2.20;;;22.30;99.90;;;;;;5077073;28;20506;-84
2023/08/14 09:06:30;;;;;;;8.70;1.80;;;22.30;99.90;;;;;;5067664;28;20128;-85
2023/08/14 09:08:56;;;;;;;9.00;1.85;;;22.40;99.90;;;;;;5085571;28;20039;-84
2023/08/14 09:11:22;;;;;;;5.32;1.50;;;22.40;99.90;;;;;;5085658;28;20475;-84
2023/08/14 09:13:48;;;;;;;7.95;1.58;;;22.40;99.90;;;;;;5067584;28;20047;-85
2023/08/14 09:16:15;;;;;;;6.22;1.58;;;22.20;99.90;;;;;;5086540;28;20491;-84
2023/08/14 09:18:45;;;;;;;4.85;1.50;;;22.20;99.90;;;;;;5085297;28;20055;-84
2023/08/14 09:21:12;;;;;;;13.45;2.05;;;22.20;99.90;;;;;;5086108;28;20051;-85
2023/08/14 09:23:39;;;;;;;6.75;1.30;;;22.30;99.90;;;;;;5085276;28;20115;-84
2023/08/14 09:26:05;;;;;;;8.65;1.38;;;22.50;99.90;;;;;;5085740;28;20119;-84
2023/08/14 09:28:32;;;;;;;7.13;1.70;;;22.50;99.90;;;;;;5084932;28;20056;-85
2023/08/14 09:31:11;;;;;;;4.80;1.27;;;22.60;99.90;;;;;;5084320;28;20086;-84
2023/08/14 09:33:42;;;;;;;6.53;1.48;;;22.70;99.90;;;;;;5084936;28;20048;-83
2023/08/14 09:36:08;;;;;;;6.30;1.58;;;22.90;99.90;;;;;;5086259;28;20059;-84
2023/08/14 09:38:34;;;;;;;7.68;1.55;;;23.00;99.90;;;;;;5085334;28;20129;-84
2023/08/14 09:41:01;;;;;;;7.32;1.90;;;23.00;99.90;;;;;;5085612;28;20059;-83
2023/08/14 09:43:31;;;;;;;6.65;1.77;;;23.10;99.90;;;;;;5069884;28;20040;-84
2023/08/14 09:45:59;;;;;;;7.82;1.50;;;23.10;99.90;;;;;;5088659;28;20099;-84
2023/08/14 09:48:45;;;;;;;8.50;1.23;;;23.10;99.90;;;;;;5071719;28;20040;-84
2023/08/14 09:51:13;;;;;;;6.15;1.10;;;23.20;99.90;;;;;;5089393;28;20034;-84
2023/08/14 09:53:49;;;;;;;5.53;1.17;;;23.10;99.90;;;;;;5071762;28;20043;-84
2023/08/14 09:56:16;;;;;;;5.50;0.90;;;23.10;99.90;;;;;;5089900;28;20047;-84
2023/08/14 09:58:42;;;;;;;7.82;1.10;;;23.10;99.90;;;;;;5089789;28;20040;-84
2023/08/14 10:01:12;;;;;;;5.68;1.10;;;23.20;99.90;;;;;;5071793;28;20210;-85
2023/08/14 10:03:40;;;;;;;7.30;1.35;;;23.20;99.90;;;;;;5058971;28;20043;-87
2023/08/14 10:06:09;;;;;;;5.50;0.88;;;23.30;99.90;;;;;;5071224;28;20039;-89
2023/08/14 10:08:37;;;;;;;6.30;1.20;;;23.30;99.90;;;;;;5094162;28;20075;-87
2023/08/14 10:11:04;;;;;;;6.93;1.00;;;23.20;99.90;;;;;;5065194;28;20040;-84
2023/08/14 10:13:35;;;;;;;10.60;1.40;;;23.10;99.90;;;;;;5070681;28;20128;-84
2023/08/14 10:16:08;;;;;;;4.85;1.00;;;23.10;99.90;;;;;;5068019;28;20527;-84
2023/08/14 10:18:38;;;;;;;8.60;1.20;;;23.20;99.90;;;;;;5086598;28;20119;-85
2023/08/14 10:21:09;;;;;;;7.55;1.13;;;23.30;99.90;;;;;;5072430;28;20047;-85
2023/08/14 10:23:37;;;;;;;7.07;1.08;;;23.40;99.90;;;;;;5077609;28;20116;-85
2023/08/14 10:26:05;;;;;;;6.18;1.00;;;23.40;99.90;;;;;;5076154;28;20048;-85
2023/08/14 10:28:32;;;;;;;6.20;0.90;;;23.50;99.90;;;;;;5088729;28;20044;-85
2023/08/14 10:30:58;;;;;;;7.78;1.00;;;23.60;99.90;;;;;;5078052;28;20062;-84
2023/08/14 10:33:25;;;;;;;6.40;1.17;;;23.60;99.90;;;;;;5076726;28;20098;-86
2023/08/14 10:35:54;;;;;;;5.63;1.02;;;23.60;99.90;;;;;;5069715;28;20040;-86
2023/08/14 10:38:20;;;;;;;4.38;0.95;;;23.80;99.90;;;;;;5088502;28;20172;-86
2023/08/14 10:41:06;;;;;;;7.85;1.00;;;24.00;99.90;;;;;;5068792;28;20491;-86
2023/08/14 10:43:31;;;;;;;6.70;0.90;;;24.20;99.90;;;;;;5087641;28;20060;-87
2023/08/14 10:45:57;;;;;;;4.15;0.90;;;24.30;99.90;;;;;;5082182;28;20145;-86
2023/08/14 10:48:24;;;;;;;9.68;1.08;;;24.50;99.90;;;;;;5063891;28;20131;-84
2023/08/14 10:50:59;;;;;;;7.10;1.20;;;24.60;99.90;;;;;;5076031;28;20052;-84
2023/08/14 10:53:24;;;;;;;3.67;0.75;;;24.70;99.90;;;;;;5084550;28;20071;-85
2023/08/14 10:55:51;;;;;;;4.40;1.10;;;24.70;99.90;;;;;;5086384;28;20514;-84
2023/08/14 10:58:32;;;;;;;3.58;1.20;;;24.70;99.90;;;;;;5088248;28;20039;-84
2023/08/14 11:00:59;;;;;;;4.63;0.80;;;24.70;99.90;;;;;;5087291;28;20056;-84
2023/08/14 11:03:25;;;;;;;4.65;0.95;;;24.70;99.90;;;;;;5058247;28;20038;-84
2023/08/14 11:05:51;;;;;;;5.60;0.88;;;24.60;99.90;;;;;;5086036;28;20310;-84
2023/08/14 11:08:18;;;;;;;6.32;1.20;;;24.60;99.90;;;;;;5080760;28;20166;-84
2023/08/14 11:10:44;;;;;;;7.15;1.20;;;24.60;99.90;;;;;;5061197;28;20047;-85
2023/08/14 11:13:10;;;;;;;4.30;0.80;;;24.60;99.90;;;;;;5072669;28;20035;-84
2023/08/14 11:15:38;;;;;;;4.18;0.90;;;24.60;99.90;;;;;;5087483;28;20064;-85
2023/08/14 11:18:05;;;;;;;5.32;0.75;;;24.70;99.90;;;;;;5064833;28;20052;-85
2023/08/14 11:20:32;;;;;;;6.35;1.50;;;24.80;99.90;;;;;;5080812;28;20051;-84
2023/08/14 11:23:01;;;;;;;6.07;0.98;;;24.80;99.90;;;;;;5070256;28;20044;-85
2023/08/14 11:25:27;;;;;;;8.48;1.10;;;24.70;99.90;;;;;;5071128;28;20048;-84
2023/08/14 11:27:54;;;;;;;6.72;1.67;;;24.60;99.90;;;;;;5070060;28;20044;-83
2023/08/14 11:30:21;;;;;;;8.82;1.30;;;24.60;99.90;;;;;;5070888;28;20134;-85
2023/08/14 11:32:47;;;;;;;3.85;0.95;;;24.50;99.90;;;;;;5068972;28;20130;-84
2023/08/14 11:35:13;;;;;;;5.00;0.90;;;24.50;99.90;;;;;;5070247;28;20119;-85
2023/08/14 11:37:39;;;;;;;3.97;1.02;;;24.60;99.90;;;;;;5086160;28;20075;-85
2023/08/14 11:40:07;;;;;;;3.45;0.80;;;24.80;99.90;;;;;;5058842;28;20074;-85
2023/08/14 11:42:34;;;;;;;4.05;0.73;;;24.90;99.90;;;;;;5079297;28;20094;-85
2023/08/14 11:45:04;;;;;;;5.80;1.10;;;25.00;99.90;;;;;;5065835;28;20044;-86
2023/08/14 11:47:38;;;;;;;3.97;0.85;;;25.00;99.90;;;;;;5069838;28;20248;-87
2023/08/14 11:50:05;;;;;;;7.50;1.25;;;24.90;99.90;;;;;;5070994;28;20040;-86
2023/08/14 11:52:31;;;;;;;5.50;0.90;;;24.80;99.90;;;;;;5070728;28;20052;-87
2023/08/14 11:54:58;;;;;;;4.18;1.10;;;24.80;99.90;;;;;;5086782;28;20222;-86
2023/08/14 11:57:29;;;;;;;6.20;1.80;;;24.80;99.90;;;;;;5071443;28;20046;-87
2023/08/14 11:59:59;;;;;;;4.93;1.20;;;24.80;99.90;;;;;;5066478;28;20522;-87
2023/08/14 12:02:27;;;;;;;4.03;1.00;;;24.90;99.90;;;;;;5077077;28;20048;-87
2023/08/14 12:04:54;;;;;;;5.72;1.00;;;24.90;99.90;;;;;;5070290;28;20548;-87
2023/08/14 12:07:21;;;;;;;4.75;1.00;;;24.90;99.90;;;;;;5069216;28;20139;-87
2023/08/14 12:09:48;;;;;;;7.38;1.17;;;24.80;99.90;;;;;;5081001;28;20044;-87
2023/08/14 12:12:14;;;;;;;6.22;1.13;;;24.80;99.90;;;;;;5060134;28;20048;-87
2023/08/14 12:14:48;;;;;;;3.63;0.82;;;24.90;99.90;;;;;;5068851;28;20036;-85
2023/08/14 12:17:16;;;;;;;5.28;0.90;;;25.10;99.90;;;;;;5068506;28;20090;-87
2023/08/14 12:19:42;;;;;;;5.05;1.20;;;25.20;99.90;;;;;;5085687;28;20059;-87
2023/08/14 12:22:09;;;;;;;5.95;1.20;;;25.20;99.90;;;;;;5058417;28;20203;-87
2023/08/14 12:24:42;;;;;;;3.20;0.73;;;25.10;99.90;;;;;;5069221;28;20032;-87
2023/08/14 12:27:25;;;;;;;5.03;1.00;;;25.00;99.90;;;;;;5057900;28;20213;-86
2023/08/14 12:29:53;;;;;;;6.60;1.20;;;24.90;99.90;;;;;;5070521;28;20477;-87
2023/08/14 12:32:20;;;;;;;5.13;1.30;;;25.00;99.90;;;;;;5072800;28;20075;-87
2023/08/14 12:34:46;;;;;;;5.38;0.90;;;25.10;99.90;;;;;;5070535;28;20036;-87
2023/08/14 12:37:14;;;;;;;5.28;1.15;;;25.30;99.90;;;;;;5086908;28;20044;-87
2023/08/14 12:39:41;;;;;;;4.72;1.25;;;25.40;99.90;;;;;;5087906;28;20076;-88
2023/08/14 12:42:07;;;;;;;3.03;0.70;;;25.50;99.90;;;;;;5054199;28;20051;-85
2023/08/14 12:44:33;;;;;;;6.03;1.40;;;25.50;99.90;;;;;;5062438;28;20043;-88